KLRO/LRO METAR and TAF weather

Enter ICAO airport designator
Station Type Date Time Source
KLRO METAR 2022/07/03 14:55 UTC NOAA

KLRO 031455Z AUTO VRB06KT 10SM CLR 31/26 A3006 RMK AO2


Station Type Date Time Source
KLRO Decoded METAR 2022/07/03 14:55 UTC NOAA

Station name not available
Jul 03, 2022 - 10:55 AM EDT / 2022.07.03 1455 UTC
Wind: Variable at 7 MPH (6 KT):0
Visibility: 10 mile(s):0
Sky conditions: clear
Temperature: 87 F (31 C)
Heat index: 99.7 F (37.6 C):1
Dew Point: 78 F (26 C)
Relative Humidity: 74%
Pressure (altimeter): 30.06 in. Hg (1017 hPa)
ob: KLRO 031455Z AUTO VRB06KT 10SM CLR 31/26 A3006 RMK AO2
cycle: 15

Station Type Date Time Source
KLRO TAF UTC NOAA

Error!

Example: see airport list